sensor_id;sensor_type;location;lat;lon;timestamp;temperature;humidity
35111;DHT22;21290;50.158;8.658;2024-03-23T00:53:52;8.20;99.90
35111;DHT22;21290;50.158;8.658;2024-03-23T00:56:18;8.20;99.90
35111;DHT22;21290;50.158;8.658;2024-03-23T00:58:43;8.30;99.90
35111;DHT22;21290;50.158;8.658;2024-03-23T01:01:10;8.30;99.90
35111;DHT22;21290;50.158;8.658;2024-03-23T01:03:36;8.40;99.90
35111;DHT22;21290;50.158;8.658;2024-03-23T01:06:02;8.40;99.90
35111;DHT22;21290;50.158;8.658;2024-03-23T01:08:31;8.50;99.90
35111;DHT22;21290;50.158;8.658;2024-03-23T01:11:01;8.50;99.90
35111;DHT22;21290;50.158;8.658;2024-03-23T01:13:28;8.50;99.90
35111;DHT22;21290;50.158;8.658;2024-03-23T01:15:55;8.50;99.90
35111;DHT22;21290;50.158;8.658;2024-03-23T01:18:22;8.50;99.90
35111;DHT22;21290;50.158;8.658;2024-03-23T01:20:48;8.50;99.90
35111;DHT22;21290;50.158;8.658;2024-03-23T01:23:14;8.50;99.90
35111;DHT22;21290;50.158;8.658;2024-03-23T01:25:41;8.50;99.90
35111;DHT22;21290;50.158;8.658;2024-03-23T01:28:07;8.50;99.90
35111;DHT22;21290;50.158;8.658;2024-03-23T01:30:36;8.50;99.90
35111;DHT22;21290;50.158;8.658;2024-03-23T01:33:02;8.50;99.90
35111;DHT22;21290;50.158;8.658;2024-03-23T01:35:28;8.50;99.90
35111;DHT22;21290;50.158;8.658;2024-03-23T01:37:54;8.50;99.90
35111;DHT22;21290;50.158;8.658;2024-03-23T01:40:20;8.50;99.90
35111;DHT22;21290;50.158;8.658;2024-03-23T01:43:03;8.50;99.90
35111;DHT22;21290;50.158;8.658;2024-03-23T01:45:30;8.50;99.90
35111;DHT22;21290;50.158;8.658;2024-03-23T01:47:56;8.50;99.90
35111;DHT22;21290;50.158;8.658;2024-03-23T01:50:22;8.40;99.90
35111;DHT22;21290;50.158;8.658;2024-03-23T01:52:49;8.40;99.90
35111;DHT22;21290;50.158;8.658;2024-03-23T01:55:15;8.40;99.90
35111;DHT22;21290;50.158;8.658;2024-03-23T01:57:42;8.30;99.90
35111;DHT22;21290;50.158;8.658;2024-03-23T02:00:08;8.30;99.90
35111;DHT22;21290;50.158;8.658;2024-03-23T02:05:08;8.30;99.90
35111;DHT22;21290;50.158;8.658;2024-03-23T02:07:34;8.30;99.90
35111;DHT22;21290;50.158;8.658;2024-03-23T02:10:01;8.30;99.90
35111;DHT22;21290;50.158;8.658;2024-03-23T02:12:26;8.30;99.90
35111;DHT22;21290;50.158;8.658;2024-03-23T02:14:52;8.30;99.90
35111;DHT22;21290;50.158;8.658;2024-03-23T02:17:18;8.30;99.90
35111;DHT22;21290;50.158;8.658;2024-03-23T02:19:45;8.30;99.90
35111;DHT22;21290;50.158;8.658;2024-03-23T02:22:12;8.30;99.90
35111;DHT22;21290;50.158;8.658;2024-03-23T02:24:38;8.30;99.90
35111;DHT22;21290;50.158;8.658;2024-03-23T02:27:04;8.30;99.90
35111;DHT22;21290;50.158;8.658;2024-03-23T02:29:29;8.20;99.90
35111;DHT22;21290;50.158;8.658;2024-03-23T02:31:55;8.20;99.90
35111;DHT22;21290;50.158;8.658;2024-03-23T02:34:21;8.20;99.90
35111;DHT22;21290;50.158;8.658;2024-03-23T02:36:47;8.20;99.90
35111;DHT22;21290;50.158;8.658;2024-03-23T02:39:12;8.20;99.90
35111;DHT22;21290;50.158;8.658;2024-03-23T02:41:39;8.10;99.90
35111;DHT22;21290;50.158;8.658;2024-03-23T02:44:04;8.10;99.90
35111;DHT22;21290;50.158;8.658;2024-03-23T02:46:30;8.10;99.90
35111;DHT22;21290;50.158;8.658;2024-03-23T02:48:57;8.10;99.90
35111;DHT22;21290;50.158;8.658;2024-03-23T02:51:22;8.10;99.90
35111;DHT22;21290;50.158;8.658;2024-03-23T02:53:48;8.10;99.90
35111;DHT22;21290;50.158;8.658;2024-03-23T02:56:14;8.10;99.90
35111;DHT22;21290;50.158;8.658;2024-03-23T02:58:43;8.10;99.90
35111;DHT22;21290;50.158;8.658;2024-03-23T03:01:09;8.10;99.90
35111;DHT22;21290;50.158;8.658;2024-03-23T03:03:34;8.10;99.90
35111;DHT22;21290;50.158;8.658;2024-03-23T03:06:00;8.10;99.90
35111;DHT22;21290;50.158;8.658;2024-03-23T03:08:26;8.20;99.90
35111;DHT22;21290;50.158;8.658;2024-03-23T03:10:52;8.20;99.90
35111;DHT22;21290;50.158;8.658;2024-03-23T03:13:18;8.20;99.90
35111;DHT22;21290;50.158;8.658;2024-03-23T03:15:44;8.30;99.90
35111;DHT22;21290;50.158;8.658;2024-03-23T03:18:10;8.40;99.90
35111;DHT22;21290;50.158;8.658;2024-03-23T03:20:41;8.40;99.90
35111;DHT22;21290;50.158;8.658;2024-03-23T03:23:07;8.40;99.90
35111;DHT22;21290;50.158;8.658;2024-03-23T03:25:33;8.50;99.90
35111;DHT22;21290;50.158;8.658;2024-03-23T03:27:59;8.50;99.90
35111;DHT22;21290;50.158;8.658;2024-03-23T03:30:25;8.60;99.90
35111;DHT22;21290;50.158;8.658;2024-03-23T03:32:53;8.60;99.90
35111;DHT22;21290;50.158;8.658;2024-03-23T03:35:19;8.60;99.90
35111;DHT22;21290;50.158;8.658;2024-03-23T03:37:46;8.60;99.90
35111;DHT22;21290;50.158;8.658;2024-03-23T03:40:12;8.60;99.90
35111;DHT22;21290;50.158;8.658;2024-03-23T03:42:41;8.60;99.90
35111;DHT22;21290;50.158;8.658;2024-03-23T03:45:07;8.50;99.90
35111;DHT22;21290;50.158;8.658;2024-03-23T03:47:33;8.60;99.90
35111;DHT22;21290;50.158;8.658;2024-03-23T03:49:59;8.50;99.90
35111;DHT22;21290;50.158;8.658;2024-03-23T03:52:25;8.50;99.90
35111;DHT22;21290;50.158;8.658;2024-03-23T03:54:51;8.60;99.90
35111;DHT22;21290;50.158;8.658;2024-03-23T03:57:16;8.60;99.90
35111;DHT22;21290;50.158;8.658;2024-03-23T03:59:42;8.50;99.90
35111;DHT22;21290;50.158;8.658;2024-03-23T04:02:08;8.60;99.90
35111;DHT22;21290;50.158;8.658;2024-03-23T04:04:35;8.60;99.90
35111;DHT22;21290;50.158;8.658;2024-03-23T04:07:02;8.60;99.90
35111;DHT22;21290;50.158;8.658;2024-03-23T04:09:28;8.60;99.90
35111;DHT22;21290;50.158;8.658;2024-03-23T04:11:53;8.70;99.90
35111;DHT22;21290;50.158;8.658;2024-03-23T04:14:19;8.70;99.90
35111;DHT22;21290;50.158;8.658;2024-03-23T04:16:45;8.60;99.90
35111;DHT22;21290;50.158;8.658;2024-03-23T04:19:11;8.70;99.90
35111;DHT22;21290;50.158;8.658;2024-03-23T04:21:37;8.70;99.90
35111;DHT22;21290;50.158;8.658;2024-03-23T04:24:04;8.70;99.90
35111;DHT22;21290;50.158;8.658;2024-03-23T04:26:29;8.80;99.90
35111;DHT22;21290;50.158;8.658;2024-03-23T04:28:56;8.80;99.90
35111;DHT22;21290;50.158;8.658;2024-03-23T04:31:22;8.90;99.90
35111;DHT22;21290;50.158;8.658;2024-03-23T04:33:48;8.80;99.90
35111;DHT22;21290;50.158;8.658;2024-03-23T04:36:14;8.70;99.90
35111;DHT22;21290;50.158;8.658;2024-03-23T04:38:39;8.70;99.90
35111;DHT22;21290;50.158;8.658;2024-03-23T04:41:05;8.60;99.90
35111;DHT22;21290;50.158;8.658;2024-03-23T04:43:31;8.60;99.90
35111;DHT22;21290;50.158;8.658;2024-03-23T04:45:57;8.50;99.90
35111;DHT22;21290;50.158;8.658;2024-03-23T04:48:23;8.40;99.90
35111;DHT22;21290;50.158;8.658;2024-03-23T04:50:55;8.30;99.90
35111;DHT22;21290;50.158;8.658;2024-03-23T04:53:21;8.20;99.90
35111;DHT22;21290;50.158;8.658;2024-03-23T04:55:47;8.20;99.90
35111;DHT22;21290;50.158;8.658;2024-03-23T04:58:13;8.20;99.90
35111;DHT22;21290;50.158;8.658;2024-03-23T05:00:39;8.10;99.90
35111;DHT22;21290;50.158;8.658;2024-03-23T05:03:05;8.10;99.90
35111;DHT22;21290;50.158;8.658;2024-03-23T05:05:31;8.10;99.90
35111;DHT22;21290;50.158;8.658;2024-03-23T05:07:57;8.00;99.90
35111;DHT22;21290;50.158;8.658;2024-03-23T05:10:22;8.00;99.90
35111;DHT22;21290;50.158;8.658;2024-03-23T05:12:48;8.00;99.90
35111;DHT22;21290;50.158;8.658;2024-03-23T05:15:14;7.90;99.90
35111;DHT22;21290;50.158;8.658;2024-03-23T05:17:40;7.90;99.90
35111;DHT22;21290;50.158;8.658;2024-03-23T05:20:06;8.00;99.90
35111;DHT22;21290;50.158;8.658;2024-03-23T05:22:35;7.90;99.90
35111;DHT22;21290;50.158;8.658;2024-03-23T05:25:02;7.90;99.90
35111;DHT22;21290;50.158;8.658;2024-03-23T05:27:32;7.90;99.90
35111;DHT22;21290;50.158;8.658;2024-03-23T05:29:59;7.90;99.90
35111;DHT22;21290;50.158;8.658;2024-03-23T05:32:24;7.90;99.90
35111;DHT22;21290;50.158;8.658;2024-03-23T05:34:50;7.90;99.90
35111;DHT22;21290;50.158;8.658;2024-03-23T05:37:24;7.90;99.90
35111;DHT22;21290;50.158;8.658;2024-03-23T05:39:50;7.90;99.90
35111;DHT22;21290;50.158;8.658;2024-03-23T05:42:17;8.00;99.90
35111;DHT22;21290;50.158;8.658;2024-03-23T05:44:46;8.00;99.90
35111;DHT22;21290;50.158;8.658;2024-03-23T05:47:12;8.00;99.90
35111;DHT22;21290;50.158;8.658;2024-03-23T05:49:40;8.00;99.90
35111;DHT22;21290;50.158;8.658;2024-03-23T05:52:09;8.10;99.90
35111;DHT22;21290;50.158;8.658;2024-03-23T05:54:35;8.10;99.90
35111;DHT22;21290;50.158;8.658;2024-03-23T05:57:02;8.10;99.90
35111;DHT22;21290;50.158;8.658;2024-03-23T05:59:28;8.10;99.90
35111;DHT22;21290;50.158;8.658;2024-03-23T06:01:54;8.10;99.90
35111;DHT22;21290;50.158;8.658;2024-03-23T06:04:20;8.00;99.90
35111;DHT22;21290;50.158;8.658;2024-03-23T06:06:47;8.00;99.90
35111;DHT22;21290;50.158;8.658;2024-03-23T06:09:12;8.00;99.90
35111;DHT22;21290;50.158;8.658;2024-03-23T06:11:38;8.00;99.90
35111;DHT22;21290;50.158;8.658;2024-03-23T06:14:04;8.00;99.90
35111;DHT22;21290;50.158;8.658;2024-03-23T06:16:30;8.00;99.90
35111;DHT22;21290;50.158;8.658;2024-03-23T06:18:56;7.90;99.90
35111;DHT22;21290;50.158;8.658;2024-03-23T06:21:22;7.90;99.90
35111;DHT22;21290;50.158;8.658;2024-03-23T06:23:51;7.90;99.90
35111;DHT22;21290;50.158;8.658;2024-03-23T06:26:19;7.80;99.90
35111;DHT22;21290;50.158;8.658;2024-03-23T06:28:45;7.80;99.90
35111;DHT22;21290;50.158;8.658;2024-03-23T06:31:11;7.70;99.90
35111;DHT22;21290;50.158;8.658;2024-03-23T06:33:38;7.70;99.90
35111;DHT22;21290;50.158;8.658;2024-03-23T06:36:05;7.70;99.90
35111;DHT22;21290;50.158;8.658;2024-03-23T06:38:31;7.60;99.90
35111;DHT22;21290;50.158;8.658;2024-03-23T06:40:57;7.60;99.90
35111;DHT22;21290;50.158;8.658;2024-03-23T06:43:23;7.50;99.90
35111;DHT22;21290;50.158;8.658;2024-03-23T06:45:53;7.50;99.90
35111;DHT22;21290;50.158;8.658;2024-03-23T06:48:19;7.60;99.90
35111;DHT22;21290;50.158;8.658;2024-03-23T06:50:45;7.50;99.90
35111;DHT22;21290;50.158;8.658;2024-03-23T06:53:13;7.50;99.90
35111;DHT22;21290;50.158;8.658;2024-03-23T06:55:38;7.60;99.90
35111;DHT22;21290;50.158;8.658;2024-03-23T06:58:04;7.60;99.90
35111;DHT22;21290;50.158;8.658;2024-03-23T07:00:30;7.60;99.90
35111;DHT22;21290;50.158;8.658;2024-03-23T07:02:58;7.60;99.90
35111;DHT22;21290;50.158;8.658;2024-03-23T07:05:24;7.60;99.90
35111;DHT22;21290;50.158;8.658;2024-03-23T07:07:50;7.70;99.90
35111;DHT22;21290;50.158;8.658;2024-03-23T07:10:15;7.80;99.90
35111;DHT22;21290;50.158;8.658;2024-03-23T07:12:41;8.00;99.90
35111;DHT22;21290;50.158;8.658;2024-03-23T07:15:07;8.10;99.90
35111;DHT22;21290;50.158;8.658;2024-03-23T07:17:34;8.20;99.90
35111;DHT22;21290;50.158;8.658;2024-03-23T07:20:03;8.30;99.90
35111;DHT22;21290;50.158;8.658;2024-03-23T07:22:32;8.40;99.90
35111;DHT22;21290;50.158;8.658;2024-03-23T07:25:02;8.50;99.90
35111;DHT22;21290;50.158;8.658;2024-03-23T07:27:28;8.70;99.90
35111;DHT22;21290;50.158;8.658;2024-03-23T07:29:54;8.80;99.90
35111;DHT22;21290;50.158;8.658;2024-03-23T07:32:20;8.80;99.90
35111;DHT22;21290;50.158;8.658;2024-03-23T07:34:48;9.00;99.90
35111;DHT22;21290;50.158;8.658;2024-03-23T07:37:14;9.10;99.90
35111;DHT22;21290;50.158;8.658;2024-03-23T07:39:40;9.20;99.90
35111;DHT22;21290;50.158;8.658;2024-03-23T07:42:06;9.10;99.90
35111;DHT22;21290;50.158;8.658;2024-03-23T07:44:32;9.10;99.90
35111;DHT22;21290;50.158;8.658;2024-03-23T07:47:01;8.90;99.90
35111;DHT22;21290;50.158;8.658;2024-03-23T07:49:27;8.90;99.90
35111;DHT22;21290;50.158;8.658;2024-03-23T07:51:53;8.80;99.90
35111;DHT22;21290;50.158;8.658;2024-03-23T07:54:19;8.90;99.90
35111;DHT22;21290;50.158;8.658;2024-03-23T07:56:45;9.00;99.90
35111;DHT22;21290;50.158;8.658;2024-03-23T07:59:11;9.10;99.90
35111;DHT22;21290;50.158;8.658;2024-03-23T08:01:36;9.20;99.90
35111;DHT22;21290;50.158;8.658;2024-03-23T08:04:02;9.30;99.90
35111;DHT22;21290;50.158;8.658;2024-03-23T08:06:28;9.30;99.90
35111;DHT22;21290;50.158;8.658;2024-03-23T08:08:55;9.30;99.90
35111;DHT22;21290;50.158;8.658;2024-03-23T08:11:32;9.40;99.90
35111;DHT22;21290;50.158;8.658;2024-03-23T08:13:58;9.50;99.90
35111;DHT22;21290;50.158;8.658;2024-03-23T08:16:24;9.60;99.90
35111;DHT22;21290;50.158;8.658;2024-03-23T08:18:54;9.90;99.90
35111;DHT22;21290;50.158;8.658;2024-03-23T08:21:22;10.80;99.90
35111;DHT22;21290;50.158;8.658;2024-03-23T08:23:48;12.60;99.90
35111;DHT22;21290;50.158;8.658;2024-03-23T08:26:16;14.40;99.90
35111;DHT22;21290;50.158;8.658;2024-03-23T08:28:43;15.20;97.10
35111;DHT22;21290;50.158;8.658;2024-03-23T08:31:11;15.70;97.00
35111;DHT22;21290;50.158;8.658;2024-03-23T08:33:38;16.60;94.50
35111;DHT22;21290;50.158;8.658;2024-03-23T08:36:06;15.60;94.40
35111;DHT22;21290;50.158;8.658;2024-03-23T08:38:32;14.80;95.40
35111;DHT22;21290;50.158;8.658;2024-03-23T08:41:03;13.80;96.70
35111;DHT22;21290;50.158;8.658;2024-03-23T08:43:36;13.20;98.40
35111;DHT22;21290;50.158;8.658;2024-03-23T08:46:06;13.10;99.50
35111;DHT22;21290;50.158;8.658;2024-03-23T08:48:34;13.50;98.60
35111;DHT22;21290;50.158;8.658;2024-03-23T08:51:07;14.80;97.60
35111;DHT22;21290;50.158;8.658;2024-03-23T08:53:37;16.40;95.30
35111;DHT22;21290;50.158;8.658;2024-03-23T08:56:03;17.50;92.70
35111;DHT22;21290;50.158;8.658;2024-03-23T08:58:30;17.50;91.00
35111;DHT22;21290;50.158;8.658;2024-03-23T09:01:02;17.20;91.50
35111;DHT22;21290;50.158;8.658;2024-03-23T09:03:29;17.60;90.50
35111;DHT22;21290;50.158;8.658;2024-03-23T09:05:55;17.90;89.60
35111;DHT22;21290;50.158;8.658;2024-03-23T09:08:21;17.10;89.10
35111;DHT22;21290;50.158;8.658;2024-03-23T09:10:47;17.10;91.10
35111;DHT22;21290;50.158;8.658;2024-03-23T09:13:14;17.10;90.70
35111;DHT22;21290;50.158;8.658;2024-03-23T09:15:50;16.90;91.20
35111;DHT22;21290;50.158;8.658;2024-03-23T09:18:17;17.50;89.80
35111;DHT22;21290;50.158;8.658;2024-03-23T09:20:43;18.20;89.20
35111;DHT22;21290;50.158;8.658;2024-03-23T09:23:09;18.70;86.70
35111;DHT22;21290;50.158;8.658;2024-03-23T09:25:38;19.20;83.70
35111;DHT22;21290;50.158;8.658;2024-03-23T09:28:05;18.50;84.40
35111;DHT22;21290;50.158;8.658;2024-03-23T09:30:35;17.90;82.90
35111;DHT22;21290;50.158;8.658;2024-03-23T09:33:02;18.00;85.50
35111;DHT22;21290;50.158;8.658;2024-03-23T09:35:28;19.00;82.00
35111;DHT22;21290;50.158;8.658;2024-03-23T09:37:54;19.50;80.00
35111;DHT22;21290;50.158;8.658;2024-03-23T09:40:20;20.00;77.80
35111;DHT22;21290;50.158;8.658;2024-03-23T09:42:52;20.10;77.30
35111;DHT22;21290;50.158;8.658;2024-03-23T09:45:21;20.20;73.30
35111;DHT22;21290;50.158;8.658;2024-03-23T09:47:48;19.90;74.40
35111;DHT22;21290;50.158;8.658;2024-03-23T09:50:14;19.30;75.70
35111;DHT22;21290;50.158;8.658;2024-03-23T09:52:40;18.60;76.30
35111;DHT22;21290;50.158;8.658;2024-03-23T09:55:09;17.70;77.10
35111;DHT22;21290;50.158;8.658;2024-03-23T09:57:35;17.60;78.10
35111;DHT22;21290;50.158;8.658;2024-03-23T10:00:02;17.30;77.50
35111;DHT22;21290;50.158;8.658;2024-03-23T10:02:29;16.50;78.00
35111;DHT22;21290;50.158;8.658;2024-03-23T10:04:55;15.80;79.50
35111;DHT22;21290;50.158;8.658;2024-03-23T10:07:21;15.70;80.10
35111;DHT22;21290;50.158;8.658;2024-03-23T10:09:50;16.60;80.30
35111;DHT22;21290;50.158;8.658;2024-03-23T10:12:19;18.60;77.10
35111;DHT22;21290;50.158;8.658;2024-03-23T10:14:45;19.20;73.50
35111;DHT22;21290;50.158;8.658;2024-03-23T10:17:14;19.10;72.80
35111;DHT22;21290;50.158;8.658;2024-03-23T10:19:41;19.10;70.10
35111;DHT22;21290;50.158;8.658;2024-03-23T10:22:09;19.30;70.70
35111;DHT22;21290;50.158;8.658;2024-03-23T10:24:35;20.00;68.00
35111;DHT22;21290;50.158;8.658;2024-03-23T10:27:01;21.20;66.00
35111;DHT22;21290;50.158;8.658;2024-03-23T10:29:27;21.90;64.20
35111;DHT22;21290;50.158;8.658;2024-03-23T10:32:07;23.10;64.50
35111;DHT22;21290;50.158;8.658;2024-03-23T10:34:32;24.30;60.20
35111;DHT22;21290;50.158;8.658;2024-03-23T10:37:02;23.90;56.70
35111;DHT22;21290;50.158;8.658;2024-03-23T10:39:33;22.90;57.10
35111;DHT22;21290;50.158;8.658;2024-03-23T10:42:02;21.70;58.70
35111;DHT22;21290;50.158;8.658;2024-03-23T10:44:29;20.30;59.30
35111;DHT22;21290;50.158;8.658;2024-03-23T10:47:06;18.10;62.00
35111;DHT22;21290;50.158;8.658;2024-03-23T10:49:33;16.80;65.10
35111;DHT22;21290;50.158;8.658;2024-03-23T10:52:03;16.40;66.60
35111;DHT22;21290;50.158;8.658;2024-03-23T10:54:33;15.50;69.20
35111;DHT22;21290;50.158;8.658;2024-03-23T10:57:09;14.90;71.10
35111;DHT22;21290;50.158;8.658;2024-03-23T10:59:39;13.90;74.90
35111;DHT22;21290;50.158;8.658;2024-03-23T11:02:05;13.00;78.60
35111;DHT22;21290;50.158;8.658;2024-03-23T11:04:37;12.30;83.10
35111;DHT22;21290;50.158;8.658;2024-03-23T11:09:53;10.30;99.90
35111;DHT22;21290;50.158;8.658;2024-03-23T11:15:06;8.90;99.90
35111;DHT22;21290;50.158;8.658;2024-03-23T11:17:36;8.60;99.90
35111;DHT22;21290;50.158;8.658;2024-03-23T11:20:06;8.60;99.90
35111;DHT22;21290;50.158;8.658;2024-03-23T11:22:42;8.50;99.90
35111;DHT22;21290;50.158;8.658;2024-03-23T11:25:22;8.50;99.90
35111;DHT22;21290;50.158;8.658;2024-03-23T11:27:53;8.70;99.90
35111;DHT22;21290;50.158;8.658;2024-03-23T11:30:23;9.00;99.90
35111;DHT22;21290;50.158;8.658;2024-03-23T11:32:55;9.40;99.90
35111;DHT22;21290;50.158;8.658;2024-03-23T11:40:32;9.50;99.90
35111;DHT22;21290;50.158;8.658;2024-03-23T11:43:02;9.30;99.90
35111;DHT22;21290;50.158;8.658;2024-03-23T11:45:29;9.10;99.90
35111;DHT22;21290;50.158;8.658;2024-03-23T11:48:10;8.90;99.90
35111;DHT22;21290;50.158;8.658;2024-03-23T11:50:43;8.90;99.90
35111;DHT22;21290;50.158;8.658;2024-03-23T11:53:14;8.90;99.90
35111;DHT22;21290;50.158;8.658;2024-03-23T11:55:50;8.90;99.90
35111;DHT22;21290;50.158;8.658;2024-03-23T11:58:17;9.00;99.90
35111;DHT22;21290;50.158;8.658;2024-03-23T12:00:50;9.30;99.90
35111;DHT22;21290;50.158;8.658;2024-03-23T12:03:17;9.80;99.90
35111;DHT22;21290;50.158;8.658;2024-03-23T12:05:51;10.20;99.90
35111;DHT22;21290;50.158;8.658;2024-03-23T12:08:23;10.30;99.90
35111;DHT22;21290;50.158;8.658;2024-03-23T12:11:04;10.50;99.90
35111;DHT22;21290;50.158;8.658;2024-03-23T12:13:30;10.90;99.90
35111;DHT22;21290;50.158;8.658;2024-03-23T12:16:16;11.10;99.90
35111;DHT22;21290;50.158;8.658;2024-03-23T12:18:43;11.20;99.90
35111;DHT22;21290;50.158;8.658;2024-03-23T12:21:10;11.20;99.90
35111;DHT22;21290;50.158;8.658;2024-03-23T12:23:38;11.40;99.90
35111;DHT22;21290;50.158;8.658;2024-03-23T12:26:04;11.70;99.90
35111;DHT22;21290;50.158;8.658;2024-03-23T12:28:30;12.00;99.90
35111;DHT22;21290;50.158;8.658;2024-03-23T12:30:56;12.10;99.90
35111;DHT22;21290;50.158;8.658;2024-03-23T12:33:22;12.10;99.50
35111;DHT22;21290;50.158;8.658;2024-03-23T12:35:48;12.10;99.30
35111;DHT22;21290;50.158;8.658;2024-03-23T12:38:14;12.20;98.80
35111;DHT22;21290;50.158;8.658;2024-03-23T12:40:40;12.30;97.30
35111;DHT22;21290;50.158;8.658;2024-03-23T12:43:07;12.20;97.00
35111;DHT22;21290;50.158;8.658;2024-03-23T12:45:35;12.30;96.90
35111;DHT22;21290;50.158;8.658;2024-03-23T12:48:01;12.50;95.90
35111;DHT22;21290;50.158;8.658;2024-03-23T12:50:27;12.60;96.30
35111;DHT22;21290;50.158;8.658;2024-03-23T12:52:53;12.90;95.80
35111;DHT22;21290;50.158;8.658;2024-03-23T12:55:20;12.80;95.00
35111;DHT22;21290;50.158;8.658;2024-03-23T12:57:47;12.50;95.40
35111;DHT22;21290;50.158;8.658;2024-03-23T13:00:13;12.40;95.60
35111;DHT22;21290;50.158;8.658;2024-03-23T13:02:41;12.40;95.70
35111;DHT22;21290;50.158;8.658;2024-03-23T13:05:07;12.40;95.60
35111;DHT22;21290;50.158;8.658;2024-03-23T13:07:36;12.20;95.40
35111;DHT22;21290;50.158;8.658;2024-03-23T13:10:03;12.30;95.50
35111;DHT22;21290;50.158;8.658;2024-03-23T13:12:29;12.20;95.60
35111;DHT22;21290;50.158;8.658;2024-03-23T13:14:55;12.10;95.90
35111;DHT22;21290;50.158;8.658;2024-03-23T13:17:21;11.80;96.00
35111;DHT22;21290;50.158;8.658;2024-03-23T13:19:47;11.00;99.90
35111;DHT22;21290;50.158;8.658;2024-03-23T13:22:12;9.70;99.90
35111;DHT22;21290;50.158;8.658;2024-03-23T13:24:38;8.80;99.90
35111;DHT22;21290;50.158;8.658;2024-03-23T13:27:05;8.40;99.90
35111;DHT22;21290;50.158;8.658;2024-03-23T13:29:34;8.00;99.90
35111;DHT22;21290;50.158;8.658;2024-03-23T13:32:01;7.70;99.90
35111;DHT22;21290;50.158;8.658;2024-03-23T13:34:26;7.50;99.90
35111;DHT22;21290;50.158;8.658;2024-03-23T13:36:53;7.30;99.90
35111;DHT22;21290;50.158;8.658;2024-03-23T13:39:19;7.30;99.90
35111;DHT22;21290;50.158;8.658;2024-03-23T13:41:46;7.30;99.90
35111;DHT22;21290;50.158;8.658;2024-03-23T13:44:13;7.50;99.90
35111;DHT22;21290;50.158;8.658;2024-03-23T13:46:41;7.80;99.90
35111;DHT22;21290;50.158;8.658;2024-03-23T13:49:28;8.30;99.90
35111;DHT22;21290;50.158;8.658;2024-03-23T13:51:55;8.80;99.90
35111;DHT22;21290;50.158;8.658;2024-03-23T13:54:21;9.30;99.90
35111;DHT22;21290;50.158;8.658;2024-03-23T13:56:51;9.70;99.90
35111;DHT22;21290;50.158;8.658;2024-03-23T13:59:18;9.90;99.90
35111;DHT22;21290;50.158;8.658;2024-03-23T14:01:44;10.10;99.90
35111;DHT22;21290;50.158;8.658;2024-03-23T14:04:13;10.40;99.90
35111;DHT22;21290;50.158;8.658;2024-03-23T14:06:42;10.40;99.90
35111;DHT22;21290;50.158;8.658;2024-03-23T14:09:08;10.60;99.90
35111;DHT22;21290;50.158;8.658;2024-03-23T14:11:37;10.40;99.90
35111;DHT22;21290;50.158;8.658;2024-03-23T14:14:03;10.40;99.90
35111;DHT22;21290;50.158;8.658;2024-03-23T14:16:30;10.40;99.90
35111;DHT22;21290;50.158;8.658;2024-03-23T14:18:56;10.20;99.90
35111;DHT22;21290;50.158;8.658;2024-03-23T14:21:22;10.00;99.90
35111;DHT22;21290;50.158;8.658;2024-03-23T14:23:48;9.90;99.90
35111;DHT22;21290;50.158;8.658;2024-03-23T14:26:14;9.70;99.90
35111;DHT22;21290;50.158;8.658;2024-03-23T14:28:40;9.60;99.90
35111;DHT22;21290;50.158;8.658;2024-03-23T14:31:06;9.50;99.90
35111;DHT22;21290;50.158;8.658;2024-03-23T14:33:41;9.60;99.90
35111;DHT22;21290;50.158;8.658;2024-03-23T14:36:14;9.80;99.90
35111;DHT22;21290;50.158;8.658;2024-03-23T14:38:40;9.90;99.90
35111;DHT22;21290;50.158;8.658;2024-03-23T14:41:06;10.00;99.90
35111;DHT22;21290;50.158;8.658;2024-03-23T14:43:32;10.10;99.90
35111;DHT22;21290;50.158;8.658;2024-03-23T14:46:10;10.10;99.90
35111;DHT22;21290;50.158;8.658;2024-03-23T14:48:37;10.10;99.90
35111;DHT22;21290;50.158;8.658;2024-03-23T14:51:04;9.90;99.90
35111;DHT22;21290;50.158;8.658;2024-03-23T14:53:34;9.80;99.90
35111;DHT22;21290;50.158;8.658;2024-03-23T14:56:01;9.80;99.90
35111;DHT22;21290;50.158;8.658;2024-03-23T14:58:27;9.90;99.90
35111;DHT22;21290;50.158;8.658;2024-03-23T15:00:53;10.10;99.90
35111;DHT22;21290;50.158;8.658;2024-03-23T15:03:19;10.00;99.90
35111;DHT22;21290;50.158;8.658;2024-03-23T15:05:58;9.90;99.90
35111;DHT22;21290;50.158;8.658;2024-03-23T15:08:26;9.90;99.90
35111;DHT22;21290;50.158;8.658;2024-03-23T15:10:53;9.90;99.90
35111;DHT22;21290;50.158;8.658;2024-03-23T15:13:19;9.80;99.90
35111;DHT22;21290;50.158;8.658;2024-03-23T15:15:45;9.80;99.90
35111;DHT22;21290;50.158;8.658;2024-03-23T15:18:11;9.90;99.90
35111;DHT22;21290;50.158;8.658;2024-03-23T15:20:39;10.20;99.90
35111;DHT22;21290;50.158;8.658;2024-03-23T15:23:04;10.50;99.90
35111;DHT22;21290;50.158;8.658;2024-03-23T15:25:30;10.60;99.90
35111;DHT22;21290;50.158;8.658;2024-03-23T15:27:58;10.60;99.90
35111;DHT22;21290;50.158;8.658;2024-03-23T15:30:25;10.50;99.90
35111;DHT22;21290;50.158;8.658;2024-03-23T15:32:51;10.30;99.90
35111;DHT22;21290;50.158;8.658;2024-03-23T15:35:18;10.20;99.90
35111;DHT22;21290;50.158;8.658;2024-03-23T15:37:44;10.20;99.90
35111;DHT22;21290;50.158;8.658;2024-03-23T15:40:11;10.10;99.90
35111;DHT22;21290;50.158;8.658;2024-03-23T15:42:38;10.00;99.90
35111;DHT22;21290;50.158;8.658;2024-03-23T15:45:06;9.90;99.90
35111;DHT22;21290;50.158;8.658;2024-03-23T15:47:34;9.40;99.90
35111;DHT22;21290;50.158;8.658;2024-03-23T15:50:00;8.30;99.90
35111;DHT22;21290;50.158;8.658;2024-03-23T15:52:26;7.50;99.90
35111;DHT22;21290;50.158;8.658;2024-03-23T15:54:52;7.00;99.90
35111;DHT22;21290;50.158;8.658;2024-03-23T15:57:19;6.80;99.90
35111;DHT22;21290;50.158;8.658;2024-03-23T15:59:45;6.80;99.90
35111;DHT22;21290;50.158;8.658;2024-03-23T16:02:10;6.70;99.90
35111;DHT22;21290;50.158;8.658;2024-03-23T16:04:37;6.80;99.90
35111;DHT22;21290;50.158;8.658;2024-03-23T16:07:03;6.80;99.90
35111;DHT22;21290;50.158;8.658;2024-03-23T16:09:30;6.80;99.90
35111;DHT22;21290;50.158;8.658;2024-03-23T16:11:56;6.80;99.90
35111;DHT22;21290;50.158;8.658;2024-03-23T16:14:22;6.80;99.90
35111;DHT22;21290;50.158;8.658;2024-03-23T16:16:49;6.70;99.90
35111;DHT22;21290;50.158;8.658;2024-03-23T16:19:15;6.70;99.90
35111;DHT22;21290;50.158;8.658;2024-03-23T16:21:43;6.60;99.90
35111;DHT22;21290;50.158;8.658;2024-03-23T16:24:09;6.50;99.90
35111;DHT22;21290;50.158;8.658;2024-03-23T16:26:36;6.50;99.90
35111;DHT22;21290;50.158;8.658;2024-03-23T16:29:01;6.50;99.90
35111;DHT22;21290;50.158;8.658;2024-03-23T16:31:27;6.50;99.90
35111;DHT22;21290;50.158;8.658;2024-03-23T16:33:53;6.60;99.90
35111;DHT22;21290;50.158;8.658;2024-03-23T16:36:19;6.60;99.90
35111;DHT22;21290;50.158;8.658;2024-03-23T16:38:45;6.60;99.90
35111;DHT22;21290;50.158;8.658;2024-03-23T16:41:12;6.50;99.90
35111;DHT22;21290;50.158;8.658;2024-03-23T16:43:41;6.50;99.90
35111;DHT22;21290;50.158;8.658;2024-03-23T16:46:09;6.40;99.90